Shenandoah National Park, VA

9:11 AM EDT op 27 maart 2015 (GMT -0400)
Redwood Lakes | | Change Station
CLOSE
Current Station
Persoonlijk weerstation
Location: Culpeper, VA
Geometrische hoogte: 416 ft
Nabije weerstations

Hoogte 416 ft 38.47 °N, 78.02 °W | Updated 1 second ago

Regen
Regen
42.1 °F
Voelt als 42 °F
N
2.0
Wind Variabel Wind van noord
Gusts 4.9 mijl/u

Vandaag
Hoog -- | Laag -- °F
--% Kans op neerslag
Gisteren
Hoog -- | Laag -- °F
Precip. -- inches
7:04 AM 7:30 PM
Eerste kwartier, 52% visible
Druk 29.81 inches
Zicht 10.0 mijlen
Wolken Licht bewolkt 2900 ft
Merendeels bewolkt 3700 ft
Gevoelstemperatuur 42 °F
Dauwpunt 42 °F
Vochtigheid 99%
Neerslag 0.83 inches
Dikte sneeuw Niet beschikbaar.
UV 1.0 van de 12
Pollen 4.60 van de 12
Luchtkwaliteit Niet beschikbaar.
Flu Activity Niet beschikbaar.
METAR KCJR 271255Z AUTO 00000KT 10SM -DZ SCT029 BKN037 06/05 A2981 RMK AO2 P0001

More Conditions Fewer Conditions

Druk 29.81 inches
Zicht 10.0 mijlen
Wolken Licht bewolkt 2900 ft
Merendeels bewolkt 3700 ft
Gevoelstemperatuur 42 °F
Dauwpunt 42 °F
Vochtigheid 99%
Neerslag 0.83 inches
Dikte sneeuw Niet beschikbaar.
UV 1.0 van de 12
Pollen 4.60 van de 12
Luchtkwaliteit Niet beschikbaar.
Flu Activity Niet beschikbaar.
METAR KCJR 271255Z AUTO 00000KT 10SM -DZ SCT029 BKN037 06/05 A2981 RMK AO2 P0001

More Conditions Fewer Conditions

Nowcast | as of 6:57 am EDT on March 27, 2015

A band of moderate to locally heavy rain will affect areas from the Virginia Piedmont to the Baltimore and Washington D.C. Metropolitan areas through mid-morning. Additional rain amounts will average one quarter to one half of an inch through 9 am. Expect rainy conditions during the morning commute. Allow extra time for travel...and be alert for ponding of water on roadways.

×

10-Day Weather Forecast

Almanac

Astronomie

Mar. 27, 2015 Opkomst Ondergang
Werkelijke tijd
Burgerlijke schemering
Nautische schemering
Astronomische schemering
Maan
Golflengte van het zichtbare licht
Daglengte
Tomorrow will be .
, % of the Moon is Illuminated

Extremen vandaag

State Highs State Lows

Community

WunderPhotos

Upload Photos

1,808,726 foto’s ge-upload!

WunderBlogs® & News

Nearby

Luchtkwaliteit

  Luchtkwaliteit LK-index Verontreinigende stof
Not available.

Dikte sneeuw

Station Depth Geometrische hoogte

Aardbevingen

Stad Distance Mag. Time & Date
Minimum magnitude displayed is 2.5.

Watertemperatuur langs de kust

Plaats Temperatuur

Stations

Nabije weerstations

Locatie station Temp. Gevoelstemperatuur Dauwpunt Vochtigheid Wind Precip. Hoogte Geactualiseerd Type